sensor_id;sensor_type;location;lat;lon;timestamp;temperature;humidity
69543;SHT31;56762;49.494;11.768;2023-10-09T00:00:07;12.62;86.15
69543;SHT31;56762;49.494;11.768;2023-10-09T00:03:03;12.61;86.51
69543;SHT31;56762;49.494;11.768;2023-10-09T00:05:33;12.59;86.42
69543;SHT31;56762;49.494;11.768;2023-10-09T00:08:15;12.59;86.46
69543;SHT31;56762;49.494;11.768;2023-10-09T00:10:49;12.58;86.59
69543;SHT31;56762;49.494;11.768;2023-10-09T00:13:21;12.58;86.32
69543;SHT31;56762;49.494;11.768;2023-10-09T00:15:56;12.58;86.49
69543;SHT31;56762;49.494;11.768;2023-10-09T00:18:28;12.59;86.00
69543;SHT31;56762;49.494;11.768;2023-10-09T00:20:57;12.54;86.21
69543;SHT31;56762;49.494;11.768;2023-10-09T00:23:38;12.52;86.24
69543;SHT31;56762;49.494;11.768;2023-10-09T00:26:07;12.51;86.42
69543;SHT31;56762;49.494;11.768;2023-10-09T00:28:39;12.52;86.33
69543;SHT31;56762;49.494;11.768;2023-10-09T00:31:10;12.51;86.25
69543;SHT31;56762;49.494;11.768;2023-10-09T00:33:42;12.52;86.21
69543;SHT31;56762;49.494;11.768;2023-10-09T00:36:10;12.51;86.39
69543;SHT31;56762;49.494;11.768;2023-10-09T00:38:46;12.52;86.26
69543;SHT31;56762;49.494;11.768;2023-10-09T00:41:18;12.49;86.27
69543;SHT31;56762;49.494;11.768;2023-10-09T00:43:52;12.48;86.27
69543;SHT31;56762;49.494;11.768;2023-10-09T00:46:21;12.48;86.26
69543;SHT31;56762;49.494;11.768;2023-10-09T00:48:54;12.44;86.38
69543;SHT31;56762;49.494;11.768;2023-10-09T00:51:24;12.48;86.45
69543;SHT31;56762;49.494;11.768;2023-10-09T00:53:56;12.44;86.37
69543;SHT31;56762;49.494;11.768;2023-10-09T00:56:27;12.45;86.45
69543;SHT31;56762;49.494;11.768;2023-10-09T00:59:07;12.45;86.53
69543;SHT31;56762;49.494;11.768;2023-10-09T01:01:41;12.47;86.32
69543;SHT31;56762;49.494;11.768;2023-10-09T01:04:15;12.41;86.47
69543;SHT31;56762;49.494;11.768;2023-10-09T01:06:46;12.44;86.60
69543;SHT31;56762;49.494;11.768;2023-10-09T01:09:20;12.44;86.40
69543;SHT31;56762;49.494;11.768;2023-10-09T01:11:50;12.42;86.53
69543;SHT31;56762;49.494;11.768;2023-10-09T01:14:31;12.42;86.85
69543;SHT31;56762;49.494;11.768;2023-10-09T01:17:02;12.44;86.70
69543;SHT31;56762;49.494;11.768;2023-10-09T01:19:34;12.48;87.13
69543;SHT31;56762;49.494;11.768;2023-10-09T01:22:03;12.51;86.95
69543;SHT31;56762;49.494;11.768;2023-10-09T01:24:42;12.51;86.42
69543;SHT31;56762;49.494;11.768;2023-10-09T01:27:10;12.55;86.28
69543;SHT31;56762;49.494;11.768;2023-10-09T01:29:43;12.57;86.42
69543;SHT31;56762;49.494;11.768;2023-10-09T01:32:14;12.59;86.27
69543;SHT31;56762;49.494;11.768;2023-10-09T01:34:46;12.62;86.38
69543;SHT31;56762;49.494;11.768;2023-10-09T01:37:17;12.64;86.56
69543;SHT31;56762;49.494;11.768;2023-10-09T01:39:52;12.64;86.21
69543;SHT31;56762;49.494;11.768;2023-10-09T01:42:20;12.69;86.23
69543;SHT31;56762;49.494;11.768;2023-10-09T01:44:55;12.68;86.21
69543;SHT31;56762;49.494;11.768;2023-10-09T01:47:24;12.69;86.11
69543;SHT31;56762;49.494;11.768;2023-10-09T01:49:58;12.69;86.13
69543;SHT31;56762;49.494;11.768;2023-10-09T01:52:31;12.68;85.99
69543;SHT31;56762;49.494;11.768;2023-10-09T01:55:05;12.67;86.20
69543;SHT31;56762;49.494;11.768;2023-10-09T01:57:52;12.59;86.41
69543;SHT31;56762;49.494;11.768;2023-10-09T02:03:57;12.52;86.56
69543;SHT31;56762;49.494;11.768;2023-10-09T02:06:33;12.52;86.89
69543;SHT31;56762;49.494;11.768;2023-10-09T02:09:04;12.48;87.19
69543;SHT31;56762;49.494;11.768;2023-10-09T02:11:35;12.51;87.28
69543;SHT31;56762;49.494;11.768;2023-10-09T02:14:08;12.51;87.21
69543;SHT31;56762;49.494;11.768;2023-10-09T02:16:46;12.51;86.95
69543;SHT31;56762;49.494;11.768;2023-10-09T02:19:40;12.49;87.14
69543;SHT31;56762;49.494;11.768;2023-10-09T02:22:09;12.49;87.30
69543;SHT31;56762;49.494;11.768;2023-10-09T02:24:40;12.49;87.36
69543;SHT31;56762;49.494;11.768;2023-10-09T02:27:19;12.51;87.41
69543;SHT31;56762;49.494;11.768;2023-10-09T02:30:06;12.54;87.45
69543;SHT31;56762;49.494;11.768;2023-10-09T02:32:42;12.55;87.24
69543;SHT31;56762;49.494;11.768;2023-10-09T02:35:12;12.58;87.25
69543;SHT31;56762;49.494;11.768;2023-10-09T02:38:04;12.58;87.28
69543;SHT31;56762;49.494;11.768;2023-10-09T02:40:36;12.58;87.11
69543;SHT31;56762;49.494;11.768;2023-10-09T02:43:20;12.58;86.95
69543;SHT31;56762;49.494;11.768;2023-10-09T02:45:51;12.57;87.21
69543;SHT31;56762;49.494;11.768;2023-10-09T02:48:19;12.55;87.26
69543;SHT31;56762;49.494;11.768;2023-10-09T02:50:53;12.59;87.15
69543;SHT31;56762;49.494;11.768;2023-10-09T02:53:24;12.61;87.07
69543;SHT31;56762;49.494;11.768;2023-10-09T02:55:56;12.61;86.84
69543;SHT31;56762;49.494;11.768;2023-10-09T02:58:39;12.61;86.75
69543;SHT31;56762;49.494;11.768;2023-10-09T03:01:11;12.59;86.96
69543;SHT31;56762;49.494;11.768;2023-10-09T03:03:40;12.57;87.11
69543;SHT31;56762;49.494;11.768;2023-10-09T03:06:14;12.57;87.34
69543;SHT31;56762;49.494;11.768;2023-10-09T03:08:45;12.55;87.46
69543;SHT31;56762;49.494;11.768;2023-10-09T03:11:14;12.58;87.25
69543;SHT31;56762;49.494;11.768;2023-10-09T03:13:43;12.55;87.10
69543;SHT31;56762;49.494;11.768;2023-10-09T03:16:12;12.54;87.09
69543;SHT31;56762;49.494;11.768;2023-10-09T03:18:42;12.52;87.06
69543;SHT31;56762;49.494;11.768;2023-10-09T03:21:10;12.52;86.82
69543;SHT31;56762;49.494;11.768;2023-10-09T03:23:40;12.52;86.92
69543;SHT31;56762;49.494;11.768;2023-10-09T03:26:08;12.52;86.96
69543;SHT31;56762;49.494;11.768;2023-10-09T03:28:48;12.51;86.78
69543;SHT31;56762;49.494;11.768;2023-10-09T03:31:17;12.47;86.84
69543;SHT31;56762;49.494;11.768;2023-10-09T03:33:44;12.48;86.78
69543;SHT31;56762;49.494;11.768;2023-10-09T03:36:14;12.47;86.54
69543;SHT31;56762;49.494;11.768;2023-10-09T03:38:44;12.45;86.62
69543;SHT31;56762;49.494;11.768;2023-10-09T03:41:12;12.44;86.65
69543;SHT31;56762;49.494;11.768;2023-10-09T03:43:42;12.47;86.59
69543;SHT31;56762;49.494;11.768;2023-10-09T03:46:14;12.45;86.65
69543;SHT31;56762;49.494;11.768;2023-10-09T03:48:47;12.47;86.62
69543;SHT31;56762;49.494;11.768;2023-10-09T03:51:16;12.45;86.55
69543;SHT31;56762;49.494;11.768;2023-10-09T03:53:51;12.45;86.56
69543;SHT31;56762;49.494;11.768;2023-10-09T03:56:19;12.42;86.58
69543;SHT31;56762;49.494;11.768;2023-10-09T03:58:49;12.42;86.33
69543;SHT31;56762;49.494;11.768;2023-10-09T04:01:19;12.44;86.30
69543;SHT31;56762;49.494;11.768;2023-10-09T04:03:54;12.40;85.82
69543;SHT31;56762;49.494;11.768;2023-10-09T04:06:26;12.37;86.16
69543;SHT31;56762;49.494;11.768;2023-10-09T04:08:59;12.34;86.26
69543;SHT31;56762;49.494;11.768;2023-10-09T04:11:40;12.34;86.24
69543;SHT31;56762;49.494;11.768;2023-10-09T04:14:10;12.33;85.97
69543;SHT31;56762;49.494;11.768;2023-10-09T04:16:39;12.33;85.78
69543;SHT31;56762;49.494;11.768;2023-10-09T04:19:18;12.26;85.80
69543;SHT31;56762;49.494;11.768;2023-10-09T04:21:48;12.20;86.02
69543;SHT31;56762;49.494;11.768;2023-10-09T04:24:17;12.18;86.08
69543;SHT31;56762;49.494;11.768;2023-10-09T04:26:51;12.17;86.04
69543;SHT31;56762;49.494;11.768;2023-10-09T04:29:23;12.14;85.91
69543;SHT31;56762;49.494;11.768;2023-10-09T04:31:54;12.13;85.76
69543;SHT31;56762;49.494;11.768;2023-10-09T04:34:23;12.10;85.45
69543;SHT31;56762;49.494;11.768;2023-10-09T04:36:57;12.04;85.62
69543;SHT31;56762;49.494;11.768;2023-10-09T04:39:29;12.06;85.86
69543;SHT31;56762;49.494;11.768;2023-10-09T04:42:03;12.01;85.52
69543;SHT31;56762;49.494;11.768;2023-10-09T04:44:53;11.99;85.69
69543;SHT31;56762;49.494;11.768;2023-10-09T04:47:35;11.99;85.75
69543;SHT31;56762;49.494;11.768;2023-10-09T04:50:05;11.96;85.72
69543;SHT31;56762;49.494;11.768;2023-10-09T04:52:35;11.97;85.40
69543;SHT31;56762;49.494;11.768;2023-10-09T04:55:22;11.94;85.47
69543;SHT31;56762;49.494;11.768;2023-10-09T04:57:52;11.91;85.46
69543;SHT31;56762;49.494;11.768;2023-10-09T05:00:36;11.89;85.29
69543;SHT31;56762;49.494;11.768;2023-10-09T05:03:29;11.86;85.35
69543;SHT31;56762;49.494;11.768;2023-10-09T05:06:11;11.80;85.30
69543;SHT31;56762;49.494;11.768;2023-10-09T05:08:59;11.76;85.32
69543;SHT31;56762;49.494;11.768;2023-10-09T05:11:36;11.75;85.18
69543;SHT31;56762;49.494;11.768;2023-10-09T05:14:36;11.70;85.15
69543;SHT31;56762;49.494;11.768;2023-10-09T05:17:06;11.70;85.21
69543;SHT31;56762;49.494;11.768;2023-10-09T05:19:43;11.63;85.28
69543;SHT31;56762;49.494;11.768;2023-10-09T05:22:22;11.63;85.34
69543;SHT31;56762;49.494;11.768;2023-10-09T05:25:06;11.59;85.53
69543;SHT31;56762;49.494;11.768;2023-10-09T05:27:44;11.55;85.34
69543;SHT31;56762;49.494;11.768;2023-10-09T05:30:18;11.49;85.62
69543;SHT31;56762;49.494;11.768;2023-10-09T05:32:54;11.48;85.36
69543;SHT31;56762;49.494;11.768;2023-10-09T05:35:47;11.43;85.53
69543;SHT31;56762;49.494;11.768;2023-10-09T05:38:32;11.45;85.80
69543;SHT31;56762;49.494;11.768;2023-10-09T05:41:02;11.42;85.82
69543;SHT31;56762;49.494;11.768;2023-10-09T05:43:45;11.40;86.14
69543;SHT31;56762;49.494;11.768;2023-10-09T05:46:31;11.43;85.87
69543;SHT31;56762;49.494;11.768;2023-10-09T05:49:03;11.46;86.05
69543;SHT31;56762;49.494;11.768;2023-10-09T05:51:36;11.46;86.09
69543;SHT31;56762;49.494;11.768;2023-10-09T05:54:10;11.52;85.92
69543;SHT31;56762;49.494;11.768;2023-10-09T05:56:58;11.52;85.89
69543;SHT31;56762;49.494;11.768;2023-10-09T05:59:57;12.06;96.41
69543;SHT31;56762;49.494;11.768;2023-10-09T06:02:43;12.64;96.31
69543;SHT31;56762;49.494;11.768;2023-10-09T06:05:28;13.16;94.00
69543;SHT31;56762;49.494;11.768;2023-10-09T06:08:18;13.58;91.13
69543;SHT31;56762;49.494;11.768;2023-10-09T06:10:51;13.84;88.97
69543;SHT31;56762;49.494;11.768;2023-10-09T06:13:32;14.04;87.70
69543;SHT31;56762;49.494;11.768;2023-10-09T06:16:13;14.17;86.14
69543;SHT31;56762;49.494;11.768;2023-10-09T06:18:47;14.08;83.70
69543;SHT31;56762;49.494;11.768;2023-10-09T06:21:34;14.09;85.50
69543;SHT31;56762;49.494;11.768;2023-10-09T06:24:23;14.21;84.92
69543;SHT31;56762;49.494;11.768;2023-10-09T06:26:52;14.26;84.42
69543;SHT31;56762;49.494;11.768;2023-10-09T06:29:34;14.36;84.94
69543;SHT31;56762;49.494;11.768;2023-10-09T06:32:07;14.49;84.42
69543;SHT31;56762;49.494;11.768;2023-10-09T06:35:02;14.56;84.42
69543;SHT31;56762;49.494;11.768;2023-10-09T06:37:50;14.63;84.24
69543;SHT31;56762;49.494;11.768;2023-10-09T06:40:40;14.72;83.65
69543;SHT31;56762;49.494;11.768;2023-10-09T06:43:26;14.73;83.89
69543;SHT31;56762;49.494;11.768;2023-10-09T06:45:56;14.73;83.64
69543;SHT31;56762;49.494;11.768;2023-10-09T06:48:46;14.77;83.68
69543;SHT31;56762;49.494;11.768;2023-10-09T06:51:23;14.80;83.50
69543;SHT31;56762;49.494;11.768;2023-10-09T06:54:09;14.69;79.66
69543;SHT31;56762;49.494;11.768;2023-10-09T06:56:41;14.39;79.78
69543;SHT31;56762;49.494;11.768;2023-10-09T06:59:38;14.04;80.78
69543;SHT31;56762;49.494;11.768;2023-10-09T07:02:10;13.81;81.82
69543;SHT31;56762;49.494;11.768;2023-10-09T07:04:53;13.66;82.89
69543;SHT31;56762;49.494;11.768;2023-10-09T07:07:23;13.51;83.61
69543;SHT31;56762;49.494;11.768;2023-10-09T07:09:52;13.49;84.10
69543;SHT31;56762;49.494;11.768;2023-10-09T07:12:38;13.46;84.62
69543;SHT31;56762;49.494;11.768;2023-10-09T07:15:11;13.46;84.40
69543;SHT31;56762;49.494;11.768;2023-10-09T07:18:09;13.49;84.35
69543;SHT31;56762;49.494;11.768;2023-10-09T07:20:53;13.51;84.29
69543;SHT31;56762;49.494;11.768;2023-10-09T07:23:28;13.54;84.14
69543;SHT31;56762;49.494;11.768;2023-10-09T07:26:03;13.64;84.06
69543;SHT31;56762;49.494;11.768;2023-10-09T07:28:46;13.68;84.20
69543;SHT31;56762;49.494;11.768;2023-10-09T07:31:20;13.78;84.06
69543;SHT31;56762;49.494;11.768;2023-10-09T07:33:56;13.87;83.31
69543;SHT31;56762;49.494;11.768;2023-10-09T07:36:35;14.02;82.98
69543;SHT31;56762;49.494;11.768;2023-10-09T07:39:05;14.12;82.97
69543;SHT31;56762;49.494;11.768;2023-10-09T07:41:43;14.21;82.82
69543;SHT31;56762;49.494;11.768;2023-10-09T07:44:28;14.29;82.35
69543;SHT31;56762;49.494;11.768;2023-10-09T07:47:04;14.35;82.09
69543;SHT31;56762;49.494;11.768;2023-10-09T07:49:45;14.45;81.73
69543;SHT31;56762;49.494;11.768;2023-10-09T07:52:21;14.52;81.71
69543;SHT31;56762;49.494;11.768;2023-10-09T07:54:50;14.58;81.78
69543;SHT31;56762;49.494;11.768;2023-10-09T07:57:21;14.66;81.28
69543;SHT31;56762;49.494;11.768;2023-10-09T07:59:53;14.77;80.77
69543;SHT31;56762;49.494;11.768;2023-10-09T08:02:39;14.93;79.67
69543;SHT31;56762;49.494;11.768;2023-10-09T08:05:08;15.07;79.27
69543;SHT31;56762;49.494;11.768;2023-10-09T08:07:50;15.20;78.50
69543;SHT31;56762;49.494;11.768;2023-10-09T08:11:03;15.41;77.33
69543;SHT31;56762;49.494;11.768;2023-10-09T08:13:48;15.57;77.05
69543;SHT31;56762;49.494;11.768;2023-10-09T08:16:27;15.63;76.15
69543;SHT31;56762;49.494;11.768;2023-10-09T08:19:04;15.66;76.28
69543;SHT31;56762;49.494;11.768;2023-10-09T08:21:55;15.72;76.33
69543;SHT31;56762;49.494;11.768;2023-10-09T08:24:45;15.72;75.78
69543;SHT31;56762;49.494;11.768;2023-10-09T08:27:23;15.77;74.87
69543;SHT31;56762;49.494;11.768;2023-10-09T08:30:13;15.83;74.71
69543;SHT31;56762;49.494;11.768;2023-10-09T08:32:55;15.82;75.09
69543;SHT31;56762;49.494;11.768;2023-10-09T08:35:33;15.81;75.18
69543;SHT31;56762;49.494;11.768;2023-10-09T08:38:02;15.82;74.85
69543;SHT31;56762;49.494;11.768;2023-10-09T08:40:38;15.81;75.68
69543;SHT31;56762;49.494;11.768;2023-10-09T08:43:09;15.77;75.45
69543;SHT31;56762;49.494;11.768;2023-10-09T08:45:38;15.72;75.65
69543;SHT31;56762;49.494;11.768;2023-10-09T08:48:07;15.73;75.58
69543;SHT31;56762;49.494;11.768;2023-10-09T08:50:42;15.75;75.73
69543;SHT31;56762;49.494;11.768;2023-10-09T08:53:12;15.77;75.87
69543;SHT31;56762;49.494;11.768;2023-10-09T08:55:42;15.81;76.02
69543;SHT31;56762;49.494;11.768;2023-10-09T08:58:10;15.83;75.30
69543;SHT31;56762;49.494;11.768;2023-10-09T09:00:47;15.81;76.05
69543;SHT31;56762;49.494;11.768;2023-10-09T09:03:16;15.90;75.74
69543;SHT31;56762;49.494;11.768;2023-10-09T09:05:46;15.90;75.22
69543;SHT31;56762;49.494;11.768;2023-10-09T09:08:22;15.92;75.09
69543;SHT31;56762;49.494;11.768;2023-10-09T09:10:58;15.98;74.89
69543;SHT31;56762;49.494;11.768;2023-10-09T09:13:32;15.95;74.96
69543;SHT31;56762;49.494;11.768;2023-10-09T09:16:01;15.99;74.57
69543;SHT31;56762;49.494;11.768;2023-10-09T09:18:29;16.00;74.18
69543;SHT31;56762;49.494;11.768;2023-10-09T09:21:17;16.05;74.54
69543;SHT31;56762;49.494;11.768;2023-10-09T09:23:54;16.02;75.74
69543;SHT31;56762;49.494;11.768;2023-10-09T09:26:38;15.99;76.45
69543;SHT31;56762;49.494;11.768;2023-10-09T09:29:12;15.96;76.67
69543;SHT31;56762;49.494;11.768;2023-10-09T09:31:54;15.98;76.92
69543;SHT31;56762;49.494;11.768;2023-10-09T09:34:24;15.99;76.99
69543;SHT31;56762;49.494;11.768;2023-10-09T09:36:57;16.00;77.17
69543;SHT31;56762;49.494;11.768;2023-10-09T09:39:26;15.98;77.12
69543;SHT31;56762;49.494;11.768;2023-10-09T09:42:08;15.98;77.10
69543;SHT31;56762;49.494;11.768;2023-10-09T09:44:42;15.98;77.22
69543;SHT31;56762;49.494;11.768;2023-10-09T09:47:12;15.92;78.35
69543;SHT31;56762;49.494;11.768;2023-10-09T09:49:51;15.90;78.55
69543;SHT31;56762;49.494;11.768;2023-10-09T09:52:30;15.86;78.34
69543;SHT31;56762;49.494;11.768;2023-10-09T09:55:08;15.86;77.85
69543;SHT31;56762;49.494;11.768;2023-10-09T09:57:44;15.86;78.24
69543;SHT31;56762;49.494;11.768;2023-10-09T10:00:20;15.93;78.39
69543;SHT31;56762;49.494;11.768;2023-10-09T10:02:59;15.88;79.64
69543;SHT31;56762;49.494;11.768;2023-10-09T10:05:29;15.85;80.34
69543;SHT31;56762;49.494;11.768;2023-10-09T10:07:59;15.81;81.01
69543;SHT31;56762;49.494;11.768;2023-10-09T10:10:37;15.82;80.92
69543;SHT31;56762;49.494;11.768;2023-10-09T10:13:16;15.79;81.25
69543;SHT31;56762;49.494;11.768;2023-10-09T10:15:57;15.78;81.32
69543;SHT31;56762;49.494;11.768;2023-10-09T10:18:30;15.75;81.93
69543;SHT31;56762;49.494;11.768;2023-10-09T10:21:12;15.73;82.08
69543;SHT31;56762;49.494;11.768;2023-10-09T10:23:44;15.72;81.84
69543;SHT31;56762;49.494;11.768;2023-10-09T10:26:19;15.73;81.80
69543;SHT31;56762;49.494;11.768;2023-10-09T10:29:16;15.69;82.09
69543;SHT31;56762;49.494;11.768;2023-10-09T10:31:54;15.72;81.77
69543;SHT31;56762;49.494;11.768;2023-10-09T10:34:24;15.68;82.21
69543;SHT31;56762;49.494;11.768;2023-10-09T10:36:53;15.70;82.09
69543;SHT31;56762;49.494;11.768;2023-10-09T10:39:26;15.72;82.09
69543;SHT31;56762;49.494;11.768;2023-10-09T10:42:14;15.75;81.85
69543;SHT31;56762;49.494;11.768;2023-10-09T10:45:02;15.77;81.86
69543;SHT31;56762;49.494;11.768;2023-10-09T10:47:53;15.77;82.28
69543;SHT31;56762;49.494;11.768;2023-10-09T10:50:24;15.78;82.47
69543;SHT31;56762;49.494;11.768;2023-10-09T10:53:11;15.78;82.86
69543;SHT31;56762;49.494;11.768;2023-10-09T10:55:57;15.77;83.18
69543;SHT31;56762;49.494;11.768;2023-10-09T10:58:25;15.78;83.33
69543;SHT31;56762;49.494;11.768;2023-10-09T11:01:03;15.78;83.39
69543;SHT31;56762;49.494;11.768;2023-10-09T11:03:42;15.79;83.61
69543;SHT31;56762;49.494;11.768;2023-10-09T11:06:26;15.77;83.98
69543;SHT31;56762;49.494;11.768;2023-10-09T11:09:04;15.78;84.04
69543;SHT31;56762;49.494;11.768;2023-10-09T11:11:48;15.81;84.38
69543;SHT31;56762;49.494;11.768;2023-10-09T11:14:17;15.82;84.98
69543;SHT31;56762;49.494;11.768;2023-10-09T11:16:51;15.81;84.93
69543;SHT31;56762;49.494;11.768;2023-10-09T11:19:25;15.82;84.73
69543;SHT31;56762;49.494;11.768;2023-10-09T11:21:59;15.85;84.83
69543;SHT31;56762;49.494;11.768;2023-10-09T11:24:53;15.92;85.44
69543;SHT31;56762;49.494;11.768;2023-10-09T11:27:43;15.96;85.11
69543;SHT31;56762;49.494;11.768;2023-10-09T11:30:18;15.99;85.28
69543;SHT31;56762;49.494;11.768;2023-10-09T11:33:05;16.03;84.84
69543;SHT31;56762;49.494;11.768;2023-10-09T11:35:32;16.09;85.48
69543;SHT31;56762;49.494;11.768;2023-10-09T11:38:02;16.14;85.93
69543;SHT31;56762;49.494;11.768;2023-10-09T11:40:50;16.20;86.12
69543;SHT31;56762;49.494;11.768;2023-10-09T11:43:49;16.27;85.00
69543;SHT31;56762;49.494;11.768;2023-10-09T11:46:22;16.29;84.79
69543;SHT31;56762;49.494;11.768;2023-10-09T11:49:16;16.34;83.28
69543;SHT31;56762;49.494;11.768;2023-10-09T11:52:11;16.40;82.68
69543;SHT31;56762;49.494;11.768;2023-10-09T11:54:56;16.47;81.68
69543;SHT31;56762;49.494;11.768;2023-10-09T11:57:27;16.47;81.47
69543;SHT31;56762;49.494;11.768;2023-10-09T12:00:00;16.54;82.34
69543;SHT31;56762;49.494;11.768;2023-10-09T12:02:34;16.51;82.46
69543;SHT31;56762;49.494;11.768;2023-10-09T12:05:10;16.50;82.96
69543;SHT31;56762;49.494;11.768;2023-10-09T12:07:44;16.57;82.94
69543;SHT31;56762;49.494;11.768;2023-10-09T12:10:12;16.60;82.74
69543;SHT31;56762;49.494;11.768;2023-10-09T12:12:52;16.61;82.29
69543;SHT31;56762;49.494;11.768;2023-10-09T12:15:20;16.61;82.37
69543;SHT31;56762;49.494;11.768;2023-10-09T12:17:48;16.63;81.78
69543;SHT31;56762;49.494;11.768;2023-10-09T12:20:20;16.63;81.37
69543;SHT31;56762;49.494;11.768;2023-10-09T12:22:59;16.64;81.32
69543;SHT31;56762;49.494;11.768;2023-10-09T12:25:27;16.70;81.14
69543;SHT31;56762;49.494;11.768;2023-10-09T12:27:59;16.72;80.85
69543;SHT31;56762;49.494;11.768;2023-10-09T12:30:28;16.74;81.09
69543;SHT31;56762;49.494;11.768;2023-10-09T12:32:57;16.71;81.46
69543;SHT31;56762;49.494;11.768;2023-10-09T12:35:26;16.67;81.89
69543;SHT31;56762;49.494;11.768;2023-10-09T12:37:55;16.67;82.53
69543;SHT31;56762;49.494;11.768;2023-10-09T12:40:23;16.65;82.94
69543;SHT31;56762;49.494;11.768;2023-10-09T12:42:56;16.64;83.26
69543;SHT31;56762;49.494;11.768;2023-10-09T12:45:34;16.64;83.63
69543;SHT31;56762;49.494;11.768;2023-10-09T12:48:03;16.65;83.78
69543;SHT31;56762;49.494;11.768;2023-10-09T12:50:36;16.65;83.68
69543;SHT31;56762;49.494;11.768;2023-10-09T12:53:08;16.65;83.51
69543;SHT31;56762;49.494;11.768;2023-10-09T12:55:37;16.65;83.70
69543;SHT31;56762;49.494;11.768;2023-10-09T12:58:08;16.67;83.13
69543;SHT31;56762;49.494;11.768;2023-10-09T13:00:39;16.67;82.90
69543;SHT31;56762;49.494;11.768;2023-10-09T13:03:11;16.68;82.90
69543;SHT31;56762;49.494;11.768;2023-10-09T13:05:46;16.68;82.81
69543;SHT31;56762;49.494;11.768;2023-10-09T13:08:23;16.71;82.02
69543;SHT31;56762;49.494;11.768;2023-10-09T13:11:02;16.72;82.22
69543;SHT31;56762;49.494;11.768;2023-10-09T13:13:39;16.75;81.59
69543;SHT31;56762;49.494;11.768;2023-10-09T13:16:11;16.75;81.88
69543;SHT31;56762;49.494;11.768;2023-10-09T13:18:50;16.75;81.73
69543;SHT31;56762;49.494;11.768;2023-10-09T13:21:18;16.78;81.32
69543;SHT31;56762;49.494;11.768;2023-10-09T13:23:47;16.81;81.89
69543;SHT31;56762;49.494;11.768;2023-10-09T13:26:16;16.85;80.76
69543;SHT31;56762;49.494;11.768;2023-10-09T13:28:59;16.91;81.55
69543;SHT31;56762;49.494;11.768;2023-10-09T13:31:30;16.94;80.20
69543;SHT31;56762;49.494;11.768;2023-10-09T13:34:02;16.99;79.58
69543;SHT31;56762;49.494;11.768;2023-10-09T13:36:33;17.02;78.89
69543;SHT31;56762;49.494;11.768;2023-10-09T13:39:04;17.07;78.35
69543;SHT31;56762;49.494;11.768;2023-10-09T13:41:58;17.14;75.17
69543;SHT31;56762;49.494;11.768;2023-10-09T13:44:28;17.23;74.59
69543;SHT31;56762;49.494;11.768;2023-10-09T13:46:57;17.29;73.68
69543;SHT31;56762;49.494;11.768;2023-10-09T13:49:26;17.35;73.85
69543;SHT31;56762;49.494;11.768;2023-10-09T13:51:57;17.39;73.13
69543;SHT31;56762;49.494;11.768;2023-10-09T13:54:26;17.43;73.15
69543;SHT31;56762;49.494;11.768;2023-10-09T13:57:07;17.49;73.61
69543;SHT31;56762;49.494;11.768;2023-10-09T13:59:37;17.51;71.32
69543;SHT31;56762;49.494;11.768;2023-10-09T14:02:15;17.65;71.32
69543;SHT31;56762;49.494;11.768;2023-10-09T14:04:48;17.66;71.89
69543;SHT31;56762;49.494;11.768;2023-10-09T14:07:16;17.70;71.54
69543;SHT31;56762;49.494;11.768;2023-10-09T14:09:45;17.77;71.32
69543;SHT31;56762;49.494;11.768;2023-10-09T14:12:23;17.79;71.44
69543;SHT31;56762;49.494;11.768;2023-10-09T14:14:56;17.79;72.59
69543;SHT31;56762;49.494;11.768;2023-10-09T14:17:24;17.83;70.91
69543;SHT31;56762;49.494;11.768;2023-10-09T14:19:56;17.89;70.01
69543;SHT31;56762;49.494;11.768;2023-10-09T14:22:45;17.93;70.25
69543;SHT31;56762;49.494;11.768;2023-10-09T14:25:19;17.93;70.66
69543;SHT31;56762;49.494;11.768;2023-10-09T14:27:50;17.97;69.29
69543;SHT31;56762;49.494;11.768;2023-10-09T14:30:20;17.98;70.18
69543;SHT31;56762;49.494;11.768;2023-10-09T14:32:57;17.96;72.12
69543;SHT31;56762;49.494;11.768;2023-10-09T14:35:28;17.94;71.65
69543;SHT31;56762;49.494;11.768;2023-10-09T14:37:57;17.89;71.80
69543;SHT31;56762;49.494;11.768;2023-10-09T14:40:28;17.90;72.12
69543;SHT31;56762;49.494;11.768;2023-10-09T14:43:01;17.87;71.92
69543;SHT31;56762;49.494;11.768;2023-10-09T14:45:30;17.87;71.05
69543;SHT31;56762;49.494;11.768;2023-10-09T14:47:58;17.84;71.83
69543;SHT31;56762;49.494;11.768;2023-10-09T14:50:26;17.87;71.20
69543;SHT31;56762;49.494;11.768;2023-10-09T14:52:55;17.84;71.28
69543;SHT31;56762;49.494;11.768;2023-10-09T14:55:23;17.87;70.89
69543;SHT31;56762;49.494;11.768;2023-10-09T14:57:56;17.84;71.36
69543;SHT31;56762;49.494;11.768;2023-10-09T15:00:27;17.80;71.56
69543;SHT31;56762;49.494;11.768;2023-10-09T15:03:00;17.81;70.75
69543;SHT31;56762;49.494;11.768;2023-10-09T15:05:30;17.84;70.02
69543;SHT31;56762;49.494;11.768;2023-10-09T15:08:02;17.84;70.24
69543;SHT31;56762;49.494;11.768;2023-10-09T15:10:30;17.81;71.07
69543;SHT31;56762;49.494;11.768;2023-10-09T15:12:58;17.76;72.79
69543;SHT31;56762;49.494;11.768;2023-10-09T15:15:28;17.74;71.08
69543;SHT31;56762;49.494;11.768;2023-10-09T15:17:58;17.70;71.35
69543;SHT31;56762;49.494;11.768;2023-10-09T15:20:25;17.66;71.11
69543;SHT31;56762;49.494;11.768;2023-10-09T15:22:54;17.65;72.96
69543;SHT31;56762;49.494;11.768;2023-10-09T15:25:22;17.60;73.78
69543;SHT31;56762;49.494;11.768;2023-10-09T15:27:50;17.53;72.91
69543;SHT31;56762;49.494;11.768;2023-10-09T15:30:18;17.49;74.05
69543;SHT31;56762;49.494;11.768;2023-10-09T15:32:48;17.43;74.24
69543;SHT31;56762;49.494;11.768;2023-10-09T15:35:17;17.39;74.30
69543;SHT31;56762;49.494;11.768;2023-10-09T15:37:45;17.40;72.68
69543;SHT31;56762;49.494;11.768;2023-10-09T15:40:16;17.36;73.03
69543;SHT31;56762;49.494;11.768;2023-10-09T15:42:50;17.32;73.66
69543;SHT31;56762;49.494;11.768;2023-10-09T15:45:22;17.30;74.22
69543;SHT31;56762;49.494;11.768;2023-10-09T15:47:52;17.25;75.37
69543;SHT31;56762;49.494;11.768;2023-10-09T15:50:21;17.26;75.04
69543;SHT31;56762;49.494;11.768;2023-10-09T15:52:51;17.20;76.01
69543;SHT31;56762;49.494;11.768;2023-10-09T15:55:21;17.15;76.52
69543;SHT31;56762;49.494;11.768;2023-10-09T15:57:51;17.11;76.32
69543;SHT31;56762;49.494;11.768;2023-10-09T16:00:22;17.05;77.04
69543;SHT31;56762;49.494;11.768;2023-10-09T16:02:57;17.01;76.31
69543;SHT31;56762;49.494;11.768;2023-10-09T16:05:27;16.98;76.62
69543;SHT31;56762;49.494;11.768;2023-10-09T16:07:57;16.98;76.98